sensor_id;sensor_type;location;lat;lon;timestamp;temperature;humidity
20829;DHT22;10575;50.124;8.582;2022-08-21T00:01:57;21.10;94.20
20829;DHT22;10575;50.124;8.582;2022-08-21T00:04:23;21.20;94.20
20829;DHT22;10575;50.124;8.582;2022-08-21T00:06:50;21.20;93.80
20829;DHT22;10575;50.124;8.582;2022-08-21T00:09:17;21.30;93.60
20829;DHT22;10575;50.124;8.582;2022-08-21T00:11:43;21.30;93.60
20829;DHT22;10575;50.124;8.582;2022-08-21T00:14:09;21.20;93.50
20829;DHT22;10575;50.124;8.582;2022-08-21T00:16:36;21.10;93.60
20829;DHT22;10575;50.124;8.582;2022-08-21T00:19:02;21.10;93.90
20829;DHT22;10575;50.124;8.582;2022-08-21T00:21:28;21.00;94.20
20829;DHT22;10575;50.124;8.582;2022-08-21T00:23:53;21.00;94.50
20829;DHT22;10575;50.124;8.582;2022-08-21T00:26:19;20.90;95.00
20829;DHT22;10575;50.124;8.582;2022-08-21T00:28:44;20.90;95.30
20829;DHT22;10575;50.124;8.582;2022-08-21T00:31:11;20.80;96.00
20829;DHT22;10575;50.124;8.582;2022-08-21T00:33:37;20.70;95.90
20829;DHT22;10575;50.124;8.582;2022-08-21T00:36:03;20.70;96.00
20829;DHT22;10575;50.124;8.582;2022-08-21T00:38:29;20.80;96.00
20829;DHT22;10575;50.124;8.582;2022-08-21T00:40:57;20.90;96.20
20829;DHT22;10575;50.124;8.582;2022-08-21T00:43:28;20.80;96.00
20829;DHT22;10575;50.124;8.582;2022-08-21T00:45:54;20.90;96.10
20829;DHT22;10575;50.124;8.582;2022-08-21T00:48:21;20.80;96.10
20829;DHT22;10575;50.124;8.582;2022-08-21T00:50:52;20.70;96.00
20829;DHT22;10575;50.124;8.582;2022-08-21T00:53:18;20.70;96.50
20829;DHT22;10575;50.124;8.582;2022-08-21T00:55:45;20.60;96.80
20829;DHT22;10575;50.124;8.582;2022-08-21T00:58:13;20.50;97.20
20829;DHT22;10575;50.124;8.582;2022-08-21T01:00:41;20.50;97.50
20829;DHT22;10575;50.124;8.582;2022-08-21T01:03:10;20.40;97.50
20829;DHT22;10575;50.124;8.582;2022-08-21T01:05:37;20.40;97.80
20829;DHT22;10575;50.124;8.582;2022-08-21T01:08:04;20.50;97.80
20829;DHT22;10575;50.124;8.582;2022-08-21T01:10:30;20.50;97.60
20829;DHT22;10575;50.124;8.582;2022-08-21T01:12:57;20.50;97.70
20829;DHT22;10575;50.124;8.582;2022-08-21T01:15:27;20.50;97.80
20829;DHT22;10575;50.124;8.582;2022-08-21T01:17:54;20.50;98.10
20829;DHT22;10575;50.124;8.582;2022-08-21T01:20:20;20.40;98.40
20829;DHT22;10575;50.124;8.582;2022-08-21T01:22:45;20.30;98.80
20829;DHT22;10575;50.124;8.582;2022-08-21T01:25:15;20.30;99.10
20829;DHT22;10575;50.124;8.582;2022-08-21T01:27:41;20.20;99.50
20829;DHT22;10575;50.124;8.582;2022-08-21T01:30:17;19.90;99.90
20829;DHT22;10575;50.124;8.582;2022-08-21T01:32:43;19.80;99.90
20829;DHT22;10575;50.124;8.582;2022-08-21T01:35:10;19.80;99.90
20829;DHT22;10575;50.124;8.582;2022-08-21T01:37:37;19.90;99.90
20829;DHT22;10575;50.124;8.582;2022-08-21T01:40:04;19.90;99.90
20829;DHT22;10575;50.124;8.582;2022-08-21T01:42:30;19.90;99.90
20829;DHT22;10575;50.124;8.582;2022-08-21T01:44:56;20.00;99.90
20829;DHT22;10575;50.124;8.582;2022-08-21T01:47:22;19.90;99.90
20829;DHT22;10575;50.124;8.582;2022-08-21T01:49:48;19.90;99.90
20829;DHT22;10575;50.124;8.582;2022-08-21T01:52:13;19.90;99.90
20829;DHT22;10575;50.124;8.582;2022-08-21T01:54:39;19.80;99.90
20829;DHT22;10575;50.124;8.582;2022-08-21T01:57:05;19.80;99.90
20829;DHT22;10575;50.124;8.582;2022-08-21T01:59:31;19.90;99.90
20829;DHT22;10575;50.124;8.582;2022-08-21T02:01:57;19.80;99.90
20829;DHT22;10575;50.124;8.582;2022-08-21T02:04:22;19.70;99.90
20829;DHT22;10575;50.124;8.582;2022-08-21T02:06:49;19.60;99.90
20829;DHT22;10575;50.124;8.582;2022-08-21T02:09:14;19.50;99.90
20829;DHT22;10575;50.124;8.582;2022-08-21T02:11:41;19.50;99.90
20829;DHT22;10575;50.124;8.582;2022-08-21T02:14:08;19.50;99.90
20829;DHT22;10575;50.124;8.582;2022-08-21T02:16:33;19.50;99.90
20829;DHT22;10575;50.124;8.582;2022-08-21T02:18:59;19.40;99.90
20829;DHT22;10575;50.124;8.582;2022-08-21T02:21:25;19.40;99.90
20829;DHT22;10575;50.124;8.582;2022-08-21T02:23:51;19.40;99.90
20829;DHT22;10575;50.124;8.582;2022-08-21T02:26:17;19.40;99.90
20829;DHT22;10575;50.124;8.582;2022-08-21T02:28:43;19.40;99.90
20829;DHT22;10575;50.124;8.582;2022-08-21T02:31:09;19.40;99.90
20829;DHT22;10575;50.124;8.582;2022-08-21T02:33:35;19.30;99.90
20829;DHT22;10575;50.124;8.582;2022-08-21T02:36:02;19.30;99.90
20829;DHT22;10575;50.124;8.582;2022-08-21T02:38:31;19.20;99.90
20829;DHT22;10575;50.124;8.582;2022-08-21T02:41:08;19.20;99.90
20829;DHT22;10575;50.124;8.582;2022-08-21T02:43:34;19.20;99.90
20829;DHT22;10575;50.124;8.582;2022-08-21T02:46:00;19.20;99.90
20829;DHT22;10575;50.124;8.582;2022-08-21T02:48:28;19.20;99.90
20829;DHT22;10575;50.124;8.582;2022-08-21T02:50:57;19.20;99.90
20829;DHT22;10575;50.124;8.582;2022-08-21T02:53:23;19.30;99.90
20829;DHT22;10575;50.124;8.582;2022-08-21T02:55:49;19.30;99.90
20829;DHT22;10575;50.124;8.582;2022-08-21T02:58:18;19.20;99.90
20829;DHT22;10575;50.124;8.582;2022-08-21T03:00:44;19.20;99.90
20829;DHT22;10575;50.124;8.582;2022-08-21T03:03:10;19.20;99.90
20829;DHT22;10575;50.124;8.582;2022-08-21T03:05:36;19.10;99.90
20829;DHT22;10575;50.124;8.582;2022-08-21T03:08:05;19.00;99.90
20829;DHT22;10575;50.124;8.582;2022-08-21T03:10:34;19.00;99.90
20829;DHT22;10575;50.124;8.582;2022-08-21T03:13:00;19.00;99.90
20829;DHT22;10575;50.124;8.582;2022-08-21T03:15:29;19.00;99.90
20829;DHT22;10575;50.124;8.582;2022-08-21T03:17:55;18.90;99.90
20829;DHT22;10575;50.124;8.582;2022-08-21T03:20:23;18.90;99.90
20829;DHT22;10575;50.124;8.582;2022-08-21T03:22:49;18.90;99.90
20829;DHT22;10575;50.124;8.582;2022-08-21T03:25:15;18.80;99.90
20829;DHT22;10575;50.124;8.582;2022-08-21T03:27:41;18.80;99.90
20829;DHT22;10575;50.124;8.582;2022-08-21T03:30:08;18.80;99.90
20829;DHT22;10575;50.124;8.582;2022-08-21T03:32:35;18.70;99.90
20829;DHT22;10575;50.124;8.582;2022-08-21T03:35:02;18.70;99.90
20829;DHT22;10575;50.124;8.582;2022-08-21T03:37:28;18.70;99.90
20829;DHT22;10575;50.124;8.582;2022-08-21T03:39:53;18.60;99.90
20829;DHT22;10575;50.124;8.582;2022-08-21T03:42:19;18.50;99.90
20829;DHT22;10575;50.124;8.582;2022-08-21T03:44:45;18.50;99.90
20829;DHT22;10575;50.124;8.582;2022-08-21T03:47:10;18.50;99.90
20829;DHT22;10575;50.124;8.582;2022-08-21T03:49:36;18.50;99.90
20829;DHT22;10575;50.124;8.582;2022-08-21T03:52:03;18.40;99.90
20829;DHT22;10575;50.124;8.582;2022-08-21T03:54:29;18.40;99.90
20829;DHT22;10575;50.124;8.582;2022-08-21T03:56:54;18.40;99.90
20829;DHT22;10575;50.124;8.582;2022-08-21T03:59:20;18.40;99.90
20829;DHT22;10575;50.124;8.582;2022-08-21T04:01:57;18.40;99.90
20829;DHT22;10575;50.124;8.582;2022-08-21T04:04:23;18.40;99.90
20829;DHT22;10575;50.124;8.582;2022-08-21T04:06:49;18.40;99.90
20829;DHT22;10575;50.124;8.582;2022-08-21T04:09:15;18.30;99.90
20829;DHT22;10575;50.124;8.582;2022-08-21T04:11:41;18.30;99.90
20829;DHT22;10575;50.124;8.582;2022-08-21T04:14:07;18.30;99.90
20829;DHT22;10575;50.124;8.582;2022-08-21T04:16:32;18.30;99.90
20829;DHT22;10575;50.124;8.582;2022-08-21T04:18:58;18.30;99.90
20829;DHT22;10575;50.124;8.582;2022-08-21T04:21:23;18.30;99.90
20829;DHT22;10575;50.124;8.582;2022-08-21T04:23:49;18.40;99.90
20829;DHT22;10575;50.124;8.582;2022-08-21T04:26:15;18.40;99.90
20829;DHT22;10575;50.124;8.582;2022-08-21T04:28:41;18.40;99.90
20829;DHT22;10575;50.124;8.582;2022-08-21T04:31:07;18.50;99.90
20829;DHT22;10575;50.124;8.582;2022-08-21T04:33:33;18.50;99.90
20829;DHT22;10575;50.124;8.582;2022-08-21T04:35:58;18.50;99.90
20829;DHT22;10575;50.124;8.582;2022-08-21T04:38:24;18.50;99.90
20829;DHT22;10575;50.124;8.582;2022-08-21T04:40:50;18.50;99.90
20829;DHT22;10575;50.124;8.582;2022-08-21T04:43:18;18.40;99.90
20829;DHT22;10575;50.124;8.582;2022-08-21T04:45:46;18.40;99.90
20829;DHT22;10575;50.124;8.582;2022-08-21T04:48:14;18.40;99.90
20829;DHT22;10575;50.124;8.582;2022-08-21T04:53:20;18.40;99.90
20829;DHT22;10575;50.124;8.582;2022-08-21T04:55:47;18.30;99.90
20829;DHT22;10575;50.124;8.582;2022-08-21T04:58:15;18.10;99.90
20829;DHT22;10575;50.124;8.582;2022-08-21T05:00:43;18.00;99.90
20829;DHT22;10575;50.124;8.582;2022-08-21T05:03:09;18.00;99.90
20829;DHT22;10575;50.124;8.582;2022-08-21T05:05:37;18.10;99.90
20829;DHT22;10575;50.124;8.582;2022-08-21T05:08:04;18.20;99.90
20829;DHT22;10575;50.124;8.582;2022-08-21T05:10:32;18.40;99.90
20829;DHT22;10575;50.124;8.582;2022-08-21T05:12:59;18.40;99.90
20829;DHT22;10575;50.124;8.582;2022-08-21T05:15:25;18.50;99.90
20829;DHT22;10575;50.124;8.582;2022-08-21T05:17:51;18.60;99.90
20829;DHT22;10575;50.124;8.582;2022-08-21T05:20:17;18.70;99.90
20829;DHT22;10575;50.124;8.582;2022-08-21T05:22:42;18.80;99.90
20829;DHT22;10575;50.124;8.582;2022-08-21T05:25:09;18.90;99.90
20829;DHT22;10575;50.124;8.582;2022-08-21T05:27:34;19.00;99.90
20829;DHT22;10575;50.124;8.582;2022-08-21T05:30:00;19.10;99.90
20829;DHT22;10575;50.124;8.582;2022-08-21T05:32:26;19.20;99.90
20829;DHT22;10575;50.124;8.582;2022-08-21T05:34:53;19.30;99.90
20829;DHT22;10575;50.124;8.582;2022-08-21T05:37:18;19.50;99.90
20829;DHT22;10575;50.124;8.582;2022-08-21T05:39:44;19.60;99.90
20829;DHT22;10575;50.124;8.582;2022-08-21T05:42:10;19.70;99.90
20829;DHT22;10575;50.124;8.582;2022-08-21T05:44:35;19.80;99.90
20829;DHT22;10575;50.124;8.582;2022-08-21T05:47:06;20.00;99.90
20829;DHT22;10575;50.124;8.582;2022-08-21T05:49:32;20.10;99.90
20829;DHT22;10575;50.124;8.582;2022-08-21T05:51:57;20.20;99.90
20829;DHT22;10575;50.124;8.582;2022-08-21T05:54:23;20.20;99.90
20829;DHT22;10575;50.124;8.582;2022-08-21T05:56:49;20.30;99.90
20829;DHT22;10575;50.124;8.582;2022-08-21T05:59:14;20.50;99.90
20829;DHT22;10575;50.124;8.582;2022-08-21T06:01:40;20.80;99.90
20829;DHT22;10575;50.124;8.582;2022-08-21T06:04:06;21.20;99.90
20829;DHT22;10575;50.124;8.582;2022-08-21T06:06:33;21.70;99.90
20829;DHT22;10575;50.124;8.582;2022-08-21T06:08:58;22.40;99.90
20829;DHT22;10575;50.124;8.582;2022-08-21T06:11:24;23.50;99.90
20829;DHT22;10575;50.124;8.582;2022-08-21T06:13:49;24.70;98.80
20829;DHT22;10575;50.124;8.582;2022-08-21T06:16:16;26.20;94.90
20829;DHT22;10575;50.124;8.582;2022-08-21T06:18:42;27.40;90.60
20829;DHT22;10575;50.124;8.582;2022-08-21T06:21:08;28.70;82.30
20829;DHT22;10575;50.124;8.582;2022-08-21T06:23:34;29.60;74.30
20829;DHT22;10575;50.124;8.582;2022-08-21T06:26:04;30.40;69.50
20829;DHT22;10575;50.124;8.582;2022-08-21T06:28:31;30.70;66.80
20829;DHT22;10575;50.124;8.582;2022-08-21T06:30:57;30.70;65.40
20829;DHT22;10575;50.124;8.582;2022-08-21T06:33:23;30.40;66.20
20829;DHT22;10575;50.124;8.582;2022-08-21T06:35:49;30.30;66.10
20829;DHT22;10575;50.124;8.582;2022-08-21T06:38:14;30.20;66.10
20829;DHT22;10575;50.124;8.582;2022-08-21T06:40:40;30.20;67.10
20829;DHT22;10575;50.124;8.582;2022-08-21T06:43:08;30.60;65.20
20829;DHT22;10575;50.124;8.582;2022-08-21T06:45:34;31.50;61.90
20829;DHT22;10575;50.124;8.582;2022-08-21T06:48:00;32.70;59.20
20829;DHT22;10575;50.124;8.582;2022-08-21T06:50:26;33.80;55.80
20829;DHT22;10575;50.124;8.582;2022-08-21T06:52:59;34.70;52.80
20829;DHT22;10575;50.124;8.582;2022-08-21T06:55:24;35.00;51.00
20829;DHT22;10575;50.124;8.582;2022-08-21T06:57:50;35.20;50.30
20829;DHT22;10575;50.124;8.582;2022-08-21T07:00:15;35.40;49.50
20829;DHT22;10575;50.124;8.582;2022-08-21T07:02:41;35.30;48.50
20829;DHT22;10575;50.124;8.582;2022-08-21T07:05:07;34.70;49.20
20829;DHT22;10575;50.124;8.582;2022-08-21T07:07:32;34.30;50.60
20829;DHT22;10575;50.124;8.582;2022-08-21T07:09:58;34.00;50.40
20829;DHT22;10575;50.124;8.582;2022-08-21T07:12:23;33.70;51.30
20829;DHT22;10575;50.124;8.582;2022-08-21T07:14:49;33.70;52.10
20829;DHT22;10575;50.124;8.582;2022-08-21T07:17:14;33.60;52.20
20829;DHT22;10575;50.124;8.582;2022-08-21T07:19:40;34.50;51.60
20829;DHT22;10575;50.124;8.582;2022-08-21T07:22:05;35.70;48.60
20829;DHT22;10575;50.124;8.582;2022-08-21T07:24:32;36.90;46.50
20829;DHT22;10575;50.124;8.582;2022-08-21T07:26:57;37.80;44.10
20829;DHT22;10575;50.124;8.582;2022-08-21T07:29:23;38.20;43.80
20829;DHT22;10575;50.124;8.582;2022-08-21T07:31:48;37.60;43.00
20829;DHT22;10575;50.124;8.582;2022-08-21T07:34:14;37.40;44.10
20829;DHT22;10575;50.124;8.582;2022-08-21T07:36:39;37.30;44.40
20829;DHT22;10575;50.124;8.582;2022-08-21T07:39:05;38.70;42.60
20829;DHT22;10575;50.124;8.582;2022-08-21T07:41:31;41.30;38.40
20829;DHT22;10575;50.124;8.582;2022-08-21T07:43:58;43.30;34.70
20829;DHT22;10575;50.124;8.582;2022-08-21T07:46:24;44.40;32.90
20829;DHT22;10575;50.124;8.582;2022-08-21T07:48:50;46.60;30.60
20829;DHT22;10575;50.124;8.582;2022-08-21T07:51:17;47.50;28.80
20829;DHT22;10575;50.124;8.582;2022-08-21T07:53:48;47.80;28.00
20829;DHT22;10575;50.124;8.582;2022-08-21T07:56:13;48.80;27.10
20829;DHT22;10575;50.124;8.582;2022-08-21T07:58:39;49.90;25.40
20829;DHT22;10575;50.124;8.582;2022-08-21T08:01:06;50.50;25.00
20829;DHT22;10575;50.124;8.582;2022-08-21T08:03:32;50.70;25.20
20829;DHT22;10575;50.124;8.582;2022-08-21T08:05:57;51.70;24.40
20829;DHT22;10575;50.124;8.582;2022-08-21T08:08:23;52.60;23.20
20829;DHT22;10575;50.124;8.582;2022-08-21T08:10:49;52.20;23.30
20829;DHT22;10575;50.124;8.582;2022-08-21T08:13:16;53.00;22.10
20829;DHT22;10575;50.124;8.582;2022-08-21T08:15:41;53.70;21.80
20829;DHT22;10575;50.124;8.582;2022-08-21T08:18:07;54.60;21.70
20829;DHT22;10575;50.124;8.582;2022-08-21T08:20:32;54.60;20.80
20829;DHT22;10575;50.124;8.582;2022-08-21T08:22:58;55.00;20.90
20829;DHT22;10575;50.124;8.582;2022-08-21T08:25:25;55.30;20.80
20829;DHT22;10575;50.124;8.582;2022-08-21T08:27:51;56.00;19.90
20829;DHT22;10575;50.124;8.582;2022-08-21T08:30:19;55.60;20.30
20829;DHT22;10575;50.124;8.582;2022-08-21T08:32:46;54.00;20.90
20829;DHT22;10575;50.124;8.582;2022-08-21T08:35:12;54.60;20.50
20829;DHT22;10575;50.124;8.582;2022-08-21T08:37:39;55.10;20.20
20829;DHT22;10575;50.124;8.582;2022-08-21T08:40:12;55.30;20.30
20829;DHT22;10575;50.124;8.582;2022-08-21T08:42:39;55.80;19.70
20829;DHT22;10575;50.124;8.582;2022-08-21T08:45:12;56.70;19.20
20829;DHT22;10575;50.124;8.582;2022-08-21T08:47:42;57.10;19.30
20829;DHT22;10575;50.124;8.582;2022-08-21T08:50:19;57.20;19.30
20829;DHT22;10575;50.124;8.582;2022-08-21T08:53:04;57.70;18.70
20829;DHT22;10575;50.124;8.582;2022-08-21T08:55:35;56.80;18.80
20829;DHT22;10575;50.124;8.582;2022-08-21T08:58:02;56.70;19.00
20829;DHT22;10575;50.124;8.582;2022-08-21T09:00:29;55.20;19.80
20829;DHT22;10575;50.124;8.582;2022-08-21T09:02:57;54.90;19.70
20829;DHT22;10575;50.124;8.582;2022-08-21T09:05:27;54.70;19.50
20829;DHT22;10575;50.124;8.582;2022-08-21T09:10:58;53.80;19.90
20829;DHT22;10575;50.124;8.582;2022-08-21T09:13:53;54.60;19.40
20829;DHT22;10575;50.124;8.582;2022-08-21T09:19:09;56.40;17.30
20829;DHT22;10575;50.124;8.582;2022-08-21T09:21:53;56.70;17.00
20829;DHT22;10575;50.124;8.582;2022-08-21T09:27:04;54.60;18.30
20829;DHT22;10575;50.124;8.582;2022-08-21T09:29:36;53.20;19.30
20829;DHT22;10575;50.124;8.582;2022-08-21T09:32:06;50.60;20.60
20829;DHT22;10575;50.124;8.582;2022-08-21T09:34:34;46.70;22.70
20829;DHT22;10575;50.124;8.582;2022-08-21T09:36:59;42.90;26.10
20829;DHT22;10575;50.124;8.582;2022-08-21T09:39:28;40.40;28.50
20829;DHT22;10575;50.124;8.582;2022-08-21T09:42:03;38.60;30.40
20829;DHT22;10575;50.124;8.582;2022-08-21T09:44:33;38.40;30.90
20829;DHT22;10575;50.124;8.582;2022-08-21T09:46:59;37.40;32.90
20829;DHT22;10575;50.124;8.582;2022-08-21T09:49:30;36.30;34.00
20829;DHT22;10575;50.124;8.582;2022-08-21T09:51:56;35.70;35.10
20829;DHT22;10575;50.124;8.582;2022-08-21T09:54:29;34.70;37.00
20829;DHT22;10575;50.124;8.582;2022-08-21T09:57:00;34.00;38.50
20829;DHT22;10575;50.124;8.582;2022-08-21T09:59:46;33.90;38.70
20829;DHT22;10575;50.124;8.582;2022-08-21T10:02:32;34.20;38.40
20829;DHT22;10575;50.124;8.582;2022-08-21T10:05:16;34.10;37.70
20829;DHT22;10575;50.124;8.582;2022-08-21T10:07:43;33.90;37.50
20829;DHT22;10575;50.124;8.582;2022-08-21T10:10:16;33.60;40.00
20829;DHT22;10575;50.124;8.582;2022-08-21T10:15:31;33.20;40.20
20829;DHT22;10575;50.124;8.582;2022-08-21T10:21:10;32.50;41.00
20829;DHT22;10575;50.124;8.582;2022-08-21T10:24:04;32.20;42.10
20829;DHT22;10575;50.124;8.582;2022-08-21T10:32:11;32.40;39.00
20829;DHT22;10575;50.124;8.582;2022-08-21T10:48:02;31.30;43.80
20829;DHT22;10575;50.124;8.582;2022-08-21T10:50:52;31.40;42.30
20829;DHT22;10575;50.124;8.582;2022-08-21T10:53:35;31.10;42.90
20829;DHT22;10575;50.124;8.582;2022-08-21T10:56:17;30.90;42.40
20829;DHT22;10575;50.124;8.582;2022-08-21T11:01:37;30.80;44.40
20829;DHT22;10575;50.124;8.582;2022-08-21T11:04:13;31.00;44.30
20829;DHT22;10575;50.124;8.582;2022-08-21T11:06:47;31.10;43.60
20829;DHT22;10575;50.124;8.582;2022-08-21T11:09:16;31.20;43.60
20829;DHT22;10575;50.124;8.582;2022-08-21T11:12:06;31.00;42.40
20829;DHT22;10575;50.124;8.582;2022-08-21T11:14:47;30.90;43.10
20829;DHT22;10575;50.124;8.582;2022-08-21T11:17:18;31.00;42.00
20829;DHT22;10575;50.124;8.582;2022-08-21T11:20:08;31.00;41.10
20829;DHT22;10575;50.124;8.582;2022-08-21T11:22:44;30.90;42.70
20829;DHT22;10575;50.124;8.582;2022-08-21T11:25:22;30.80;42.80
20829;DHT22;10575;50.124;8.582;2022-08-21T11:28:00;30.40;43.10
20829;DHT22;10575;50.124;8.582;2022-08-21T11:30:39;30.40;42.80
20829;DHT22;10575;50.124;8.582;2022-08-21T11:33:31;30.60;43.00
20829;DHT22;10575;50.124;8.582;2022-08-21T11:38:34;30.30;42.70
20829;DHT22;10575;50.124;8.582;2022-08-21T11:49:57;30.30;41.70
20829;DHT22;10575;50.124;8.582;2022-08-21T11:52:34;30.30;42.10
20829;DHT22;10575;50.124;8.582;2022-08-21T11:55:10;30.10;43.10
20829;DHT22;10575;50.124;8.582;2022-08-21T11:57:44;30.10;43.60
20829;DHT22;10575;50.124;8.582;2022-08-21T12:00:19;30.00;43.30
20829;DHT22;10575;50.124;8.582;2022-08-21T12:02:50;30.00;43.00
20829;DHT22;10575;50.124;8.582;2022-08-21T12:08:13;29.70;43.70
20829;DHT22;10575;50.124;8.582;2022-08-21T12:10:42;29.60;43.50
20829;DHT22;10575;50.124;8.582;2022-08-21T12:13:30;29.40;44.80
20829;DHT22;10575;50.124;8.582;2022-08-21T12:16:27;29.30;44.00
20829;DHT22;10575;50.124;8.582;2022-08-21T12:19:06;29.40;45.10
20829;DHT22;10575;50.124;8.582;2022-08-21T12:21:33;29.60;42.50
20829;DHT22;10575;50.124;8.582;2022-08-21T12:24:19;29.60;43.70
20829;DHT22;10575;50.124;8.582;2022-08-21T12:26:52;29.70;43.30
20829;DHT22;10575;50.124;8.582;2022-08-21T12:29:28;29.60;44.60
20829;DHT22;10575;50.124;8.582;2022-08-21T12:34:23;29.50;44.10
20829;DHT22;10575;50.124;8.582;2022-08-21T12:36:56;29.60;44.20
20829;DHT22;10575;50.124;8.582;2022-08-21T12:39:26;29.60;42.60
20829;DHT22;10575;50.124;8.582;2022-08-21T12:42:15;29.60;43.00
20829;DHT22;10575;50.124;8.582;2022-08-21T12:44:50;29.60;42.50
20829;DHT22;10575;50.124;8.582;2022-08-21T12:47:45;29.50;43.20
20829;DHT22;10575;50.124;8.582;2022-08-21T12:50:29;29.30;44.40
20829;DHT22;10575;50.124;8.582;2022-08-21T12:55:48;29.20;43.60
20829;DHT22;10575;50.124;8.582;2022-08-21T12:58:24;29.20;43.00
20829;DHT22;10575;50.124;8.582;2022-08-21T13:00:52;29.10;44.00
20829;DHT22;10575;50.124;8.582;2022-08-21T13:03:19;28.90;44.50
20829;DHT22;10575;50.124;8.582;2022-08-21T13:05:45;28.80;44.40
20829;DHT22;10575;50.124;8.582;2022-08-21T13:08:12;28.80;45.30
20829;DHT22;10575;50.124;8.582;2022-08-21T13:10:40;28.80;45.40
20829;DHT22;10575;50.124;8.582;2022-08-21T13:13:17;28.70;45.50
20829;DHT22;10575;50.124;8.582;2022-08-21T13:15:45;28.90;44.60
20829;DHT22;10575;50.124;8.582;2022-08-21T13:18:20;29.20;43.10
20829;DHT22;10575;50.124;8.582;2022-08-21T13:20:46;29.30;43.20
20829;DHT22;10575;50.124;8.582;2022-08-21T13:23:24;29.40;42.50
20829;DHT22;10575;50.124;8.582;2022-08-21T13:25:49;29.40;41.60
20829;DHT22;10575;50.124;8.582;2022-08-21T13:28:15;29.40;41.70
20829;DHT22;10575;50.124;8.582;2022-08-21T13:30:45;29.40;43.00
20829;DHT22;10575;50.124;8.582;2022-08-21T13:33:13;29.40;42.30
20829;DHT22;10575;50.124;8.582;2022-08-21T13:38:31;29.30;41.70
20829;DHT22;10575;50.124;8.582;2022-08-21T13:41:05;29.20;42.00
20829;DHT22;10575;50.124;8.582;2022-08-21T13:43:35;29.20;41.70
20829;DHT22;10575;50.124;8.582;2022-08-21T13:46:06;29.00;42.90
20829;DHT22;10575;50.124;8.582;2022-08-21T13:48:34;29.00;43.60
20829;DHT22;10575;50.124;8.582;2022-08-21T13:51:00;29.10;43.40
20829;DHT22;10575;50.124;8.582;2022-08-21T13:53:33;29.10;44.20
20829;DHT22;10575;50.124;8.582;2022-08-21T13:55:59;29.00;43.20
20829;DHT22;10575;50.124;8.582;2022-08-21T13:58:31;29.00;44.00
20829;DHT22;10575;50.124;8.582;2022-08-21T14:00:59;28.80;44.30
20829;DHT22;10575;50.124;8.582;2022-08-21T14:03:52;28.70;44.30
20829;DHT22;10575;50.124;8.582;2022-08-21T14:06:21;28.50;44.40
20829;DHT22;10575;50.124;8.582;2022-08-21T14:09:00;28.40;45.50
20829;DHT22;10575;50.124;8.582;2022-08-21T14:11:31;28.40;45.60
20829;DHT22;10575;50.124;8.582;2022-08-21T14:14:02;28.50;44.90
20829;DHT22;10575;50.124;8.582;2022-08-21T14:16:43;28.60;44.00
20829;DHT22;10575;50.124;8.582;2022-08-21T14:19:20;28.50;44.00
20829;DHT22;10575;50.124;8.582;2022-08-21T14:21:46;28.40;43.70
20829;DHT22;10575;50.124;8.582;2022-08-21T14:24:30;28.40;43.00
20829;DHT22;10575;50.124;8.582;2022-08-21T14:27:02;28.60;42.10
20829;DHT22;10575;50.124;8.582;2022-08-21T14:29:35;28.80;42.00
20829;DHT22;10575;50.124;8.582;2022-08-21T14:32:35;29.10;41.10
20829;DHT22;10575;50.124;8.582;2022-08-21T14:34:56;29.30;41.00
20829;DHT22;10575;50.124;8.582;2022-08-21T14:37:23;29.40;40.60
20829;DHT22;10575;50.124;8.582;2022-08-21T14:39:49;29.50;40.70
20829;DHT22;10575;50.124;8.582;2022-08-21T14:42:14;29.60;39.80
20829;DHT22;10575;50.124;8.582;2022-08-21T14:44:40;29.60;39.80
20829;DHT22;10575;50.124;8.582;2022-08-21T14:47:08;29.50;39.30
20829;DHT22;10575;50.124;8.582;2022-08-21T14:49:34;29.50;39.60
20829;DHT22;10575;50.124;8.582;2022-08-21T14:52:00;29.60;39.90
20829;DHT22;10575;50.124;8.582;2022-08-21T14:54:29;29.40;39.80
20829;DHT22;10575;50.124;8.582;2022-08-21T14:56:57;29.50;39.50
20829;DHT22;10575;50.124;8.582;2022-08-21T14:59:23;29.40;39.40
20829;DHT22;10575;50.124;8.582;2022-08-21T15:01:51;29.40;39.20
20829;DHT22;10575;50.124;8.582;2022-08-21T15:04:17;29.40;39.50
20829;DHT22;10575;50.124;8.582;2022-08-21T15:06:42;29.40;40.20
20829;DHT22;10575;50.124;8.582;2022-08-21T15:09:08;29.30;40.20
20829;DHT22;10575;50.124;8.582;2022-08-21T15:11:34;29.20;40.50
20829;DHT22;10575;50.124;8.582;2022-08-21T15:14:02;29.30;40.70
20829;DHT22;10575;50.124;8.582;2022-08-21T15:16:29;29.40;40.70
20829;DHT22;10575;50.124;8.582;2022-08-21T15:18:56;29.30;41.00
20829;DHT22;10575;50.124;8.582;2022-08-21T15:21:21;29.50;38.20
20829;DHT22;10575;50.124;8.582;2022-08-21T15:23:47;29.60;38.30
20829;DHT22;10575;50.124;8.582;2022-08-21T15:26:12;29.50;39.80
20829;DHT22;10575;50.124;8.582;2022-08-21T15:28:38;29.40;40.80
20829;DHT22;10575;50.124;8.582;2022-08-21T15:31:04;29.40;41.20
20829;DHT22;10575;50.124;8.582;2022-08-21T15:33:31;29.30;41.80
20829;DHT22;10575;50.124;8.582;2022-08-21T15:35:57;29.10;41.50
20829;DHT22;10575;50.124;8.582;2022-08-21T15:38:22;29.00;40.30
20829;DHT22;10575;50.124;8.582;2022-08-21T15:40:48;29.00;41.60
20829;DHT22;10575;50.124;8.582;2022-08-21T15:43:29;29.20;41.90
20829;DHT22;10575;50.124;8.582;2022-08-21T15:45:55;29.30;42.50
20829;DHT22;10575;50.124;8.582;2022-08-21T15:48:21;29.40;40.00
20829;DHT22;10575;50.124;8.582;2022-08-21T15:50:47;29.40;39.80
20829;DHT22;10575;50.124;8.582;2022-08-21T15:53:13;29.60;39.50
20829;DHT22;10575;50.124;8.582;2022-08-21T15:55:40;29.60;38.40
20829;DHT22;10575;50.124;8.582;2022-08-21T15:58:06;29.70;38.10
20829;DHT22;10575;50.124;8.582;2022-08-21T16:00:35;29.50;38.00
20829;DHT22;10575;50.124;8.582;2022-08-21T16:03:03;29.40;38.50
20829;DHT22;10575;50.124;8.582;2022-08-21T16:05:29;29.50;39.40
20829;DHT22;10575;50.124;8.582;2022-08-21T16:07:55;29.50;39.80
20829;DHT22;10575;50.124;8.582;2022-08-21T16:10:22;29.70;39.40
20829;DHT22;10575;50.124;8.582;2022-08-21T16:12:56;29.60;41.00
20829;DHT22;10575;50.124;8.582;2022-08-21T16:15:23;29.60;40.30
20829;DHT22;10575;50.124;8.582;2022-08-21T16:17:49;29.50;39.70
20829;DHT22;10575;50.124;8.582;2022-08-21T16:20:22;29.50;39.90
20829;DHT22;10575;50.124;8.582;2022-08-21T16:22:49;29.60;40.20
20829;DHT22;10575;50.124;8.582;2022-08-21T16:25:15;29.70;39.80
20829;DHT22;10575;50.124;8.582;2022-08-21T16:27:43;29.70;39.70
20829;DHT22;10575;50.124;8.582;2022-08-21T16:30:11;29.70;38.80
20829;DHT22;10575;50.124;8.582;2022-08-21T16:32:37;29.90;38.00
20829;DHT22;10575;50.124;8.582;2022-08-21T16:35:03;29.90;38.30
20829;DHT22;10575;50.124;8.582;2022-08-21T16:37:29;29.70;38.30
20829;DHT22;10575;50.124;8.582;2022-08-21T16:39:54;29.50;38.10
20829;DHT22;10575;50.124;8.582;2022-08-21T16:42:23;29.40;39.20